.
WxDataArchive / Data Records for 2009-08-17
2009-08-16 August 2009 2009-08-18

Data Records for Monday, 17 August 2009

Time	Temp	Chill	HIndex	Humid	Dewpt	 Wind 	HiWind	WindDir	Rain 	Barom 
-----	----	-----	------	-----	-----	------	------	-------	-----	----- 
00:00	79.6	79.6	82.1	68	68.1	1	4	248	0.00	30.056 
00:05	79.8	79.8	82.4	68	68.3	0	4	270	0.00	30.056 
00:10	79.6	79.6	82.1	68	68.1	0	1	270	0.00	30.056 
00:15	79.6	79.6	82.1	68	68.1	0	2	270	0.00	30.055 
00:20	79.6	79.6	82.1	68	68.1	0	2	270	0.00	30.055 
00:25	79.6	79.6	82.1	68	68.1	0	1	270	0.00	30.055 
00:30	79.4	79.4	81.8	68	67.9	0	1	270	0.00	30.057 
00:35	79.2	79.2	81.5	68	67.7	0	1	270	0.00	30.057 
00:40	79.2	79.2	81.6	69	68.1	0	2	270	0.00	30.057 
00:45	79.0	79.0	81.3	69	67.9	0	1	270	0.00	30.060 
00:50	79.0	79.0	81.3	69	67.9	0	1	270	0.00	30.060 
00:55	79.0	79.0	81.3	69	67.9	0	2	270	0.00	30.060 
01:00	78.8	78.8	81.1	69	67.7	0	1	270	0.00	30.061 
01:05	78.8	78.8	81.1	69	67.7	0	2	270	0.00	30.061 
01:10	79.0	79.0	81.4	70	68.4	0	1	270	0.00	30.061 
01:15	79.0	79.0	81.4	70	68.4	0	2	270	0.00	30.063 
01:20	78.8	78.8	81.1	70	68.2	0	1	270	0.00	30.063 
01:25	78.6	78.6	80.9	71	68.4	0	0	---	0.00	30.063 
01:30	78.5	78.5	80.8	71	68.3	0	0	---	0.00	30.060 
01:35	78.3	78.3	80.5	72	68.5	0	0	---	0.00	30.060 
01:40	78.1	78.1	80.2	72	68.3	0	0	---	0.00	30.060 
01:45	77.9	77.9	80.0	73	68.5	0	0	---	0.00	30.057 
01:50	77.7	77.7	79.7	73	68.3	0	0	---	0.00	30.057 
01:55	77.6	77.6	79.6	74	68.6	0	0	---	0.00	30.057 
02:00	77.4	77.4	79.3	75	68.8	0	0	---	0.00	30.058 
02:05	77.2	77.2	79.0	75	68.6	0	0	---	0.00	30.058 
02:10	77.0	77.0	78.7	76	68.8	0	0	---	0.00	30.058 
02:15	76.8	76.8	78.4	77	69.0	0	0	---	0.00	30.057 
02:20	76.5	76.5	77.9	78	69.1	0	0	---	0.00	30.057 
02:25	76.3	76.3	77.5	79	69.3	0	0	---	0.00	30.057 
02:30	76.1	76.1	77.2	79	69.1	0	0	---	0.00	30.058 
02:35	76.0	76.0	77.1	79	69.0	0	0	---	0.00	30.058 
02:40	76.0	76.0	77.0	80	69.4	0	0	---	0.00	30.058 
02:45	75.8	75.8	76.7	80	69.2	0	0	---	0.00	30.060 
02:50	75.8	75.8	76.6	81	69.5	0	0	---	0.00	30.060 
02:55	75.8	75.8	76.6	81	69.5	0	1	270	0.00	30.060 
03:00	75.6	75.6	76.3	81	69.3	0	0	---	0.00	30.061 
03:05	75.6	75.6	76.3	81	69.3	0	0	---	0.00	30.061 
03:10	75.4	75.4	76.0	81	69.1	0	0	---	0.00	30.061 
03:15	75.4	75.4	75.9	82	69.5	0	2	270	0.00	30.074 
03:20	75.4	75.4	76.0	81	69.1	0	3	270	0.00	30.074 
03:25	75.4	75.4	76.1	80	68.8	0	0	---	0.00	30.074 
03:30	75.4	75.4	76.1	80	68.8	0	0	---	0.00	30.072 
03:35	75.4	75.4	76.2	79	68.4	0	0	---	0.00	30.072 
03:40	75.3	75.3	76.1	79	68.3	0	0	---	0.00	30.072 
03:45	75.1	75.1	75.8	79	68.1	0	0	---	0.00	30.072 
03:50	75.1	75.1	75.8	79	68.1	0	0	---	0.00	30.072 
03:55	74.9	74.9	74.9	80	68.3	0	0	---	0.00	30.072 
04:00	74.7	74.7	74.7	80	68.1	0	0	---	0.00	30.071 
04:05	74.6	74.6	74.6	80	68.0	0	0	---	0.00	30.071 
04:10	74.6	74.6	74.6	81	68.4	0	0	---	0.00	30.071 
04:15	74.4	74.4	74.4	81	68.2	0	0	---	0.00	30.066 
04:20	74.2	74.2	74.2	81	68.0	0	0	---	0.00	30.066 
04:25	74.2	74.2	74.2	82	68.3	0	1	270	0.00	30.066 
04:30	74.0	74.0	74.0	82	68.1	0	0	---	0.00	30.065 
04:35	74.0	74.0	74.0	82	68.1	0	0	---	0.00	30.065 
04:40	73.9	73.9	73.9	82	68.0	0	0	---	0.00	30.065 
04:45	73.9	73.9	73.9	82	68.0	0	0	---	0.00	30.068 
04:50	73.7	73.7	73.7	82	67.9	0	0	---	0.00	30.068 
04:55	73.7	73.7	73.7	82	67.9	0	0	---	0.00	30.068 
05:00	73.7	73.7	73.7	82	67.9	0	1	270	0.00	30.064 
05:05	73.9	73.9	73.9	80	67.3	0	1	270	0.00	30.064 
05:10	73.9	73.9	73.9	80	67.3	0	0	---	0.00	30.064 
05:15	73.9	73.9	73.9	79	67.0	0	0	---	0.00	30.058 
05:20	73.9	73.9	73.9	79	67.0	0	0	---	0.00	30.058 
05:25	73.9	73.9	73.9	79	67.0	0	0	---	0.00	30.058 
05:30	73.9	73.9	73.9	79	67.0	0	0	---	0.00	30.062 
05:35	73.7	73.7	73.7	79	66.8	0	0	---	0.00	30.062 
05:40	73.7	73.7	73.7	79	66.8	0	0	---	0.00	30.062 
05:45	73.5	73.5	73.5	80	66.9	0	0	---	0.00	30.068 
05:50	73.3	73.3	73.3	80	66.7	0	0	---	0.00	30.068 
05:55	73.3	73.3	73.3	80	66.7	0	0	---	0.00	30.068 
06:00	73.3	73.3	73.3	80	66.7	0	0	---	0.00	30.074 
06:05	73.3	73.3	73.3	80	66.7	0	0	---	0.00	30.074 
06:10	73.3	73.3	73.3	80	66.7	0	0	---	0.00	30.074 
06:15	73.2	73.2	73.2	80	66.6	0	0	---	0.00	30.076 
06:20	73.2	73.2	73.2	80	66.6	0	0	---	0.00	30.076 
06:25	73.2	73.2	73.2	80	66.6	0	0	---	0.00	30.076 
06:30	73.2	73.2	73.2	81	67.0	0	0	---	0.00	30.078 
06:35	73.3	73.3	73.3	81	67.1	0	0	---	0.00	30.078 
06:40	73.3	73.3	73.3	82	67.5	0	0	---	0.00	30.078 
06:45	73.2	73.2	73.2	82	67.4	0	0	---	0.00	30.070 
06:50	73.2	73.2	73.2	83	67.7	0	0	---	0.00	30.070 
06:55	73.2	73.2	73.2	84	68.1	0	0	---	0.00	30.070 
07:00	73.0	73.0	73.0	85	68.2	0	0	---	0.01	30.067 
07:05	72.8	72.8	72.8	86	68.4	0	0	---	0.00	30.067 
07:10	72.7	72.7	72.7	87	68.6	0	0	---	0.01	30.067 
07:15	72.5	72.5	72.5	88	68.7	0	1	270	0.02	30.078 
07:20	72.3	72.3	72.3	89	68.9	0	0	---	0.00	30.078 
07:25	72.3	72.3	72.3	90	69.2	0	0	---	0.00	30.078 
07:30	72.1	72.1	72.1	90	69.0	0	0	---	0.00	30.080 
07:35	72.1	72.1	72.1	91	69.3	0	1	270	0.00	30.080 
07:40	72.1	72.1	72.1	92	69.6	0	1	270	0.00	30.080 
07:45	72.1	72.1	72.1	92	69.6	0	0	---	0.00	30.089 
07:50	72.1	72.1	72.1	92	69.6	1	3	270	0.00	30.089 
07:55	71.6	71.6	71.6	92	69.1	1	5	270	0.12	30.089 
08:00	71.3	71.3	71.3	93	69.2	0	1	270	0.05	30.114 
08:05	71.1	71.1	71.1	93	69.0	0	1	270	0.03	30.114 
08:10	70.8	70.8	70.8	93	68.7	1	4	270	0.05	30.114 
08:15	70.6	70.6	70.6	93	68.5	0	0	---	0.03	30.118 
08:20	70.4	70.4	70.4	94	68.6	0	0	---	0.01	30.118 
08:25	70.4	70.4	70.4	94	68.6	0	0	---	0.03	30.118 
08:30	70.4	70.4	70.4	94	68.6	0	1	248	0.05	30.125 
08:35	70.3	70.3	70.3	94	68.5	0	1	248	0.01	30.125 
08:40	70.3	70.3	70.3	94	68.5	0	0	---	0.03	30.125 
08:45	70.3	70.3	70.3	94	68.5	0	0	---	0.08	30.116 
08:50	70.1	70.1	70.1	95	68.6	0	0	---	0.01	30.116 
08:55	70.1	70.1	70.1	95	68.6	0	0	---	0.00	30.116 
09:00	70.1	70.1	70.1	95	68.6	0	0	---	0.00	30.116 
09:05	70.1	70.1	70.1	95	68.6	0	0	---	0.00	30.116 
09:10	70.1	70.1	70.1	95	68.6	0	0	---	0.00	30.116 
09:15	70.1	70.1	70.1	95	68.6	0	0	---	0.00	30.118 
09:20	70.3	70.3	70.3	95	68.8	0	0	---	0.00	30.118 
09:25	70.3	70.3	70.3	95	68.8	0	0	---	0.00	30.118 
09:30	70.3	70.3	70.3	95	68.8	0	0	---	0.00	30.118 
09:35	70.4	70.4	70.4	95	68.9	0	0	---	0.00	30.118 
09:40	70.4	70.4	70.4	95	68.9	0	1	248	0.00	30.118 
09:45	70.6	70.6	70.6	95	69.1	0	0	---	0.00	30.115 
09:50	70.8	70.8	70.8	96	69.6	0	0	---	0.00	30.115 
09:55	70.9	70.9	70.9	96	69.7	0	0	---	0.00	30.115 
10:00	70.9	70.9	70.9	95	69.4	0	1	22	0.00	30.106 
10:05	70.8	70.8	70.8	95	69.3	0	0	---	0.00	30.106 
10:10	70.6	70.6	70.6	95	69.1	0	0	---	0.01	30.106 
10:15	70.6	70.6	70.6	95	69.1	0	1	248	0.00	30.112 
10:20	70.8	70.8	70.8	95	69.3	0	1	248	0.01	30.112 
10:25	70.6	70.6	70.6	95	69.1	1	4	158	0.03	30.112 
10:30	70.8	70.8	70.8	95	69.3	0	2	90	0.00	30.102 
10:35	71.1	71.1	71.1	96	69.9	0	2	90	0.00	30.102 
10:40	71.3	71.3	71.3	96	70.1	0	3	90	0.00	30.102 
10:45	72.0	72.0	72.0	96	70.8	1	3	90	0.00	30.100 
10:50	72.3	72.3	72.3	95	70.8	1	3	90	0.00	30.100 
10:55	72.1	72.1	72.1	95	70.6	0	2	90	0.00	30.100 
11:00	72.1	72.1	72.1	95	70.6	1	2	90	0.00	30.099 
11:05	72.5	72.5	72.5	95	71.0	1	3	90	0.00	30.099 
11:10	73.0	73.0	73.0	95	71.5	1	4	90	0.00	30.099 
11:15	73.3	73.3	73.3	95	71.8	1	4	90	0.00	30.102 
11:20	73.5	73.5	73.5	93	71.3	0	3	90	0.00	30.102 
11:25	73.2	73.2	73.2	92	70.7	1	2	90	0.00	30.102 
11:30	73.2	73.2	73.2	92	70.7	1	3	90	0.00	30.102 
11:35	73.2	73.2	73.2	92	70.7	1	2	90	0.00	30.102 
11:40	73.2	73.2	73.2	91	70.4	1	2	90	0.00	30.102 
11:45	73.3	73.3	73.3	91	70.5	0	1	90	0.00	30.101 
11:50	73.7	73.7	73.7	90	70.6	0	2	90	0.00	30.101 
11:55	74.0	74.0	74.0	90	70.9	0	3	90	0.00	30.101 
12:00	74.4	74.4	74.4	89	70.9	2	5	90	0.00	30.097 
12:05	74.7	74.7	74.7	88	70.9	2	8	90	0.00	30.097 
12:10	75.1	75.1	74.6	88	71.3	1	5	90	0.00	30.097 
12:15	75.8	75.8	75.9	88	72.0	1	2	135	0.00	30.094 
12:20	76.3	76.3	76.9	87	72.1	2	4	68	0.00	30.094 
12:25	77.0	77.0	78.4	86	72.5	1	2	68	0.00	30.094 
12:30	77.6	77.6	79.6	85	72.7	1	4	68	0.00	30.084 
12:35	78.1	78.1	80.6	83	72.5	1	3	68	0.00	30.084 
12:40	78.3	78.3	80.9	82	72.3	1	3	135	0.00	30.084 
12:45	78.8	78.8	81.9	82	72.8	1	4	68	0.00	30.072 
12:50	79.4	79.4	83.1	81	73.0	1	4	68	0.00	30.072 
12:55	80.3	80.3	84.7	79	73.2	1	4	90	0.00	30.072 
13:00	81.4	81.4	86.7	77	73.5	1	3	90	0.00	30.063 
13:05	82.4	82.4	88.2	74	73.3	1	3	90	0.00	30.063 
13:10	83.4	83.4	90.1	73	73.8	1	3	90	0.00	30.063 
13:15	84.0	84.0	90.5	70	73.1	1	4	90	0.00	30.060 
13:20	84.1	84.1	90.4	69	72.8	1	4	90	0.00	30.060 
13:25	83.8	83.8	91.3	74	74.6	0	1	135	0.01	30.060 
13:30	82.2	82.2	88.5	77	74.2	1	3	135	0.08	30.065 
13:35	78.1	78.1	80.5	81	71.8	2	6	292	0.27	30.065 
13:40	74.6	74.6	74.6	86	70.1	4	11	292	0.08	30.065 
13:45	72.5	72.5	72.5	89	69.1	2	7	292	0.00	30.075 
13:50	71.8	71.8	71.8	91	69.0	1	4	315	0.01	30.075 
13:55	71.5	71.5	71.5	92	69.0	0	4	292	0.00	30.075 
14:00	71.5	71.5	71.5	93	69.4	0	3	292	0.00	30.075 
14:05	71.3	71.3	71.3	93	69.2	0	3	292	0.00	30.075 
14:10	71.1	71.1	71.1	93	69.0	0	1	292	0.00	30.075 
14:15	71.3	71.3	71.3	94	69.5	0	1	292	0.00	30.074 
14:20	71.3	71.3	71.3	94	69.5	0	1	292	0.00	30.074 
14:25	71.5	71.5	71.5	94	69.7	0	2	292	0.00	30.074 
14:30	71.6	71.6	71.6	95	70.1	0	0	---	0.00	30.087 
14:35	72.0	72.0	72.0	95	70.5	0	0	---	0.01	30.087 
14:40	72.0	72.0	72.0	95	70.5	0	1	292	0.01	30.087 
14:45	71.8	71.8	71.8	94	70.0	0	1	292	0.01	30.086 
14:50	71.3	71.3	71.3	94	69.5	1	2	292	0.03	30.086 
14:55	71.3	71.3	71.3	94	69.5	0	1	292	0.04	30.086 
15:00	71.5	71.5	71.5	95	70.0	0	0	---	0.01	30.071 
15:05	71.8	71.8	71.8	95	70.3	0	1	292	0.00	30.071 
15:10	72.0	72.0	72.0	95	70.5	0	1	292	0.00	30.071 
15:15	72.3	72.3	72.3	95	70.8	0	0	---	0.00	30.064 
15:20	72.5	72.5	72.5	95	71.0	0	0	---	0.00	30.064 
15:25	72.5	72.5	72.5	95	71.0	0	0	---	0.00	30.064 
15:30	72.7	72.7	72.7	95	71.2	0	0	---	0.00	30.052 
15:35	72.8	72.8	72.8	95	71.3	0	0	---	0.00	30.052 
15:40	72.7	72.7	72.7	95	71.2	0	1	292	0.00	30.052 
15:45	73.0	73.0	73.0	95	71.5	1	2	292	0.00	30.042 
15:50	73.2	73.2	73.2	94	71.4	1	3	292	0.00	30.042 
15:55	73.3	73.3	73.3	94	71.5	1	3	90	0.00	30.042 
16:00	73.7	73.7	73.7	94	71.9	1	3	90	0.00	30.041 
16:05	74.4	74.4	74.4	93	72.2	1	4	68	0.00	30.041 
16:10	74.7	74.7	74.7	93	72.5	1	4	68	0.00	30.041 
16:15	74.6	74.6	74.6	92	72.1	1	4	90	0.00	30.043 
16:20	74.2	74.2	74.2	91	71.4	1	4	90	0.00	30.043 
16:25	73.9	73.9	73.9	91	71.1	1	5	90	0.00	30.043 
16:30	73.5	73.5	73.5	91	70.7	2	7	90	0.00	30.056 
16:35	73.5	73.5	73.5	91	70.7	1	3	68	0.00	30.056 
16:40	73.5	73.5	73.5	91	70.7	0	2	45	0.00	30.056 
16:45	73.2	73.2	73.2	90	70.1	1	4	248	0.01	30.041 
16:50	73.0	73.0	73.0	90	69.9	1	3	90	0.00	30.041 
16:55	73.0	73.0	73.0	90	69.9	1	4	68	0.00	30.041 
17:00	73.3	73.3	73.3	91	70.5	0	2	68	0.00	30.029 
17:05	73.5	73.5	73.5	91	70.7	0	2	68	0.00	30.029 
17:10	73.9	73.9	73.9	92	71.4	0	2	68	0.00	30.029 
17:15	74.7	74.7	74.7	92	72.2	1	3	112	0.00	30.022 
17:20	74.9	74.9	74.9	92	72.4	1	4	112	0.00	30.022 
17:25	75.1	75.1	74.1	91	72.3	1	3	135	0.00	30.022 
17:30	75.3	75.3	74.5	91	72.5	1	4	135	0.00	30.010 
17:35	75.8	75.8	75.6	90	72.6	1	5	90	0.00	30.010 
17:40	76.0	76.0	76.2	89	72.5	1	4	135	0.00	30.010 
17:45	76.0	76.0	76.3	88	72.2	2	4	112	0.00	30.013 
17:50	76.1	76.1	76.6	87	71.9	1	4	68	0.00	30.013 
17:55	76.1	76.1	76.7	85	71.2	1	5	112	0.00	30.013 
18:00	76.3	76.3	77.2	84	71.1	2	5	112	0.00	30.011 
18:05	76.3	76.3	77.2	83	70.7	1	4	112	0.00	30.011 
18:10	76.5	76.5	77.5	84	71.3	1	5	90	0.00	30.011 
18:15	76.7	76.7	77.9	84	71.5	0	2	270	0.00	30.008 
18:20	76.5	76.5	77.6	83	70.9	1	3	135	0.00	30.008 
18:25	76.5	76.5	77.7	82	70.6	1	4	68	0.00	30.008 
18:30	76.5	76.5	77.6	83	70.9	1	3	68	0.00	30.020 
18:35	76.3	76.3	77.2	84	71.1	1	3	68	0.00	30.020 
18:40	76.3	76.3	77.2	84	71.1	1	2	68	0.00	30.020 
18:45	76.1	76.1	76.8	84	70.9	1	3	68	0.00	30.013 
18:50	76.0	76.0	76.7	84	70.8	0	3	135	0.00	30.013 
18:55	76.0	76.0	76.7	84	70.8	0	1	135	0.00	30.013 
19:00	75.8	75.8	76.3	84	70.6	0	1	135	0.00	30.019 
19:05	75.8	75.8	76.3	84	70.6	0	1	135	0.00	30.019 
19:10	75.8	75.8	76.3	84	70.6	0	1	135	0.00	30.019 
19:15	75.6	75.6	76.0	84	70.4	0	2	135	0.00	30.013 
19:20	75.6	75.6	75.9	85	70.8	0	1	135	0.00	30.013 
19:25	75.6	75.6	76.0	84	70.4	0	2	135	0.00	30.013 
19:30	75.6	75.6	76.0	84	70.4	1	4	68	0.00	30.011 
19:35	75.6	75.6	76.0	84	70.4	1	2	68	0.00	30.011 
19:40	75.6	75.6	75.9	85	70.8	0	2	68	0.00	30.011 
19:45	75.4	75.4	75.5	85	70.6	0	1	68	0.00	30.012 
19:50	75.3	75.3	75.2	86	70.8	0	2	68	0.00	30.012 
19:55	75.1	75.1	74.9	86	70.6	0	1	68	0.00	30.012 
20:00	75.1	75.1	74.9	86	70.6	0	1	68	0.00	30.026 
20:05	74.9	74.9	74.9	87	70.8	0	2	68	0.00	30.026 
20:10	74.6	74.6	74.6	86	70.1	0	1	68	0.00	30.026 
20:15	74.2	74.2	74.2	85	69.4	1	4	45	0.00	30.026 
20:20	73.9	73.9	73.9	85	69.1	0	2	90	0.00	30.026 
20:25	73.3	73.3	73.3	86	68.8	0	3	90	0.00	30.026 
20:30	72.8	72.8	72.8	88	69.0	1	3	292	0.01	30.043 
20:35	72.5	72.5	72.5	89	69.1	1	3	292	0.10	30.043 
20:40	71.6	71.6	71.6	90	68.5	2	5	270	0.23	30.043 
20:45	70.9	70.9	70.9	91	68.1	1	3	22	0.16	30.025 
20:50	70.6	70.6	70.6	92	68.2	2	5	68	0.03	30.025 
20:55	70.3	70.3	70.3	93	68.2	2	4	90	0.01	30.025 
21:00	69.9	69.9	69.9	93	67.8	1	3	135	0.00	30.028 
21:05	69.6	69.6	69.6	93	67.5	0	2	90	0.00	30.028 
21:10	69.4	69.4	69.4	93	67.3	0	3	90	0.00	30.028 
21:15	69.3	69.3	69.3	94	67.5	0	2	90	0.01	30.025 
21:20	69.3	69.3	69.3	94	67.5	0	2	90	0.03	30.025 
21:25	69.4	69.4	69.4	94	67.6	0	3	90	0.00	30.025 
21:30	69.4	69.4	69.4	94	67.6	0	1	90	0.00	30.019 
21:35	69.8	69.8	69.8	95	68.3	1	4	90	0.07	30.019 
21:40	69.6	69.6	69.6	94	67.8	1	3	248	0.27	30.019 
21:45	69.4	69.4	69.4	95	67.9	1	3	292	0.14	30.037 
21:50	69.8	69.8	69.8	95	68.3	2	5	315	0.01	30.037 
21:55	69.9	69.9	69.9	95	68.4	1	3	315	0.02	30.037 
22:00	69.9	69.9	69.9	95	68.4	1	4	315	0.05	30.047 
22:05	69.8	69.8	69.8	95	68.3	1	4	315	0.02	30.047 
22:10	69.8	69.8	69.8	95	68.3	1	5	315	0.15	30.047 
22:15	69.6	69.6	69.6	95	68.1	0	2	315	0.11	30.052 
22:20	69.8	69.8	69.8	95	68.3	0	1	315	0.11	30.052 
22:25	69.8	69.8	69.8	96	68.6	0	2	315	0.05	30.052 
22:30	69.8	69.8	69.8	96	68.6	0	1	292	0.07	30.062 
22:35	69.9	69.9	69.9	96	68.7	0	1	315	0.05	30.062 
22:40	69.9	69.9	69.9	96	68.7	0	1	315	0.02	30.062 
22:45	69.9	69.9	69.9	96	68.7	0	0	---	0.02	30.056 
22:50	69.9	69.9	69.9	96	68.7	0	0	---	0.01	30.056 
22:55	69.9	69.9	69.9	96	68.7	0	1	292	0.00	30.056 
23:00	69.9	69.9	69.9	96	68.7	0	1	315	0.02	30.061 
23:05	69.9	69.9	69.9	96	68.7	0	1	315	0.02	30.061 
23:10	69.9	69.9	69.9	96	68.7	0	1	292	0.03	30.061 
23:15	69.9	69.9	69.9	96	68.7	0	1	292	0.02	30.060 
23:20	69.9	69.9	69.9	96	68.7	0	2	315	0.00	30.060 
23:25	69.9	69.9	69.9	96	68.7	0	2	315	0.02	30.060 
23:30	69.9	69.9	69.9	96	68.7	0	1	315	0.01	30.061 
23:35	69.9	69.9	69.9	96	68.7	0	1	315	0.02	30.061 
23:40	69.9	69.9	69.9	96	68.7	0	1	315	0.00	30.061 
23:45	69.9	69.9	69.9	96	68.7	0	3	292	0.02	30.062 
23:50	69.9	69.9	69.9	96	68.7	0	1	248	0.02	30.062 
23:55	69.9	69.9	69.9	96	68.7	0	1	248	0.01	30.062 

CoCoRaHS
IN-AL-39
A2 Web Hosting
Creative Commons License
GoDaddy
search engine by freefind advanced

loaded 2018-11-13 21:30:09 • last modified 2010-11-18 10:43:29
Privacy PolicyDisclaimer
• wx.awcolley.com is powered by PmWiki v.2002016 •
• all content (unless otherwise noted) © 2018 A W Colley